📊 Raw Sensor Data

Showing records 46451 to 46475 of 85,070 total

ID Distance (ft) Battery V Battery A Int Temp (°F) Int Humid (%) Ext Temp (°F) Solar V RSSI SNR Time Stamp
38632 -- 3.97 6 76 39 69 5.10 -83 9 04/23/2025 01:15 PM
38631 -- 3.97 0 74 39 68 5.10 -85 8 04/23/2025 01:01 PM
38630 -- 4.04 6 73 39 67 5.10 -87 7 04/23/2025 12:45 PM
38629 -- 3.98 6 71 39 64 5.10 -82 8 04/23/2025 12:15 PM
38628 -- 4.03 0 70 40 69 5.10 -84 8 04/23/2025 12:01 PM
38627 -- 4.11 6 70 39 66 5.10 -85 9 04/23/2025 11:45 AM
38626 -- 4.07 6 68 40 68 5.10 -89 8 04/23/2025 11:30 AM
38625 -- 4.12 6 68 40 68 5.10 -85 8 04/23/2025 11:15 AM
38624 -- 3.97 0 66 39 65 5.10 -82 9 04/23/2025 11:01 AM
38623 -- 3.97 6 66 39 65 5.10 -87 8 04/23/2025 10:45 AM
38622 -- 3.97 0 64 39 66 5.10 -83 8 04/23/2025 10:30 AM
38621 -- 3.97 5 63 40 65 5.10 -87 8 04/23/2025 10:15 AM
38620 -- 3.96 6 60 40 61 5.10 -85 8 04/23/2025 09:45 AM
38619 -- 3.96 6 59 40 60 5.10 -92 7 04/23/2025 09:30 AM
38618 -- 4.00 6 58 40 59 5.10 -82 9 04/23/2025 09:15 AM
38617 -- 3.96 6 57 40 59 5.10 -84 9 04/23/2025 09:00 AM
38616 -- 3.96 0 56 40 60 5.10 -84 9 04/23/2025 08:45 AM
38615 -- 3.96 6 56 39 60 5.10 -79 9 04/23/2025 08:30 AM
38614 -- 3.96 5 54 39 59 5.10 -87 8 04/23/2025 08:15 AM
38613 -- 3.97 0 53 39 58 5.10 -83 8 04/23/2025 08:00 AM
38612 -- 4.10 78 51 39 57 4.50 -90 7 04/23/2025 07:45 AM
38611 -- 4.02 39 49 39 55 4.50 -95 7 04/23/2025 07:31 AM
38610 -- 3.97 0 47 39 53 4.50 -89 8 04/23/2025 07:15 AM
38609 -- 3.98 10 45 39 48 4.50 -86 7 04/23/2025 07:00 AM
38608 -- 3.96 0 43 40 47 4.50 -87 7 04/23/2025 06:45 AM